TAF LFCR
AMD LFCR 082056Z 0820/0918 26010KT 3000 BR OVC003 TEMPO 0821/0909 3000 -SN OVC003 PROB40 TEMPO 0821/0906 1200 OVC001 PROB40 0906/0909 1200 BR BECMG 0909/0911 8000 NSW OVC010 BECMG 0911/0913 SCT012 BKN025 TEMPO 0912/0918 BKN013=
METAR LFCR
LFCR 082100Z AUTO 26011KT 8000 OVC002 01/01 Q1007 TEMPO 1200=
LFCR 082030Z AUTO 26011KT 6000 2300 OVC003 01/00 Q1007 TEMPO 1200 OVC001=
LFCR 082000Z AUTO 26012KT 9999 -RADZ OVC004 00/00 Q1006 TEMPO 1200 OVC001=
LFCR 081930Z AUTO 26011KT 9999 -RA OVC004 01/00 Q1006 TEMPO 1200 OVC001=
LFCR 081900Z AUTO 26011KT 7000 -SN BKN004 OVC018 01/00 Q1006 TEMPO 1200 OVC001=
WC LFCR
WS LFCR
WV LFCR